createdAt,value
2022-10-20T05:28:14.524Z,9.06
2022-10-20T05:45:03.216Z,9.98
2022-10-20T05:59:52.715Z,10.00
2022-10-20T06:14:43.904Z,11.80
2022-10-20T06:29:34.629Z,10.92
2022-10-20T06:44:27.670Z,9.81
2022-10-20T07:14:11.130Z,9.02
2022-10-20T07:29:02.952Z,9.96
2022-10-20T07:43:53.997Z,10.06
2022-10-20T07:58:45.931Z,10.02
2022-10-20T08:13:38.031Z,9.26
2022-10-20T08:28:30.077Z,9.36
2022-10-20T08:43:22.835Z,9.21
2022-10-20T08:58:15.032Z,9.92
2022-10-20T09:13:07.070Z,10.62
2022-10-20T09:27:59.712Z,9.90
2022-10-20T09:42:51.351Z,10.70
2022-10-20T09:57:43.589Z,9.24
2022-10-20T10:12:36.508Z,9.54
2022-10-20T10:27:30.042Z,10.36
2022-10-20T10:43:02.637Z,10.14
2022-10-20T10:58:11.942Z,9.49
2022-10-20T11:13:24.500Z,9.09
2022-10-20T11:28:27.717Z,9.22
2022-10-20T11:43:27.434Z,9.01
2022-10-20T11:58:42.616Z,8.74
2022-10-20T12:43:53.397Z,9.79
2022-10-20T12:59:07.146Z,9.32
2022-10-20T13:14:12.445Z,7.76
2022-10-20T13:29:11.906Z,9.28
2022-10-20T13:44:09.852Z,9.73
2022-10-20T13:59:05.504Z,10.50
2022-10-20T14:13:56.301Z,11.26
2022-10-20T14:28:47.822Z,10.29
2022-10-20T14:43:40.016Z,10.16
2022-10-20T15:13:42.397Z,9.94
2022-10-20T15:28:39.768Z,9.42
2022-10-20T15:43:34.775Z,8.84
2022-10-20T15:58:26.214Z,11.60
2022-10-20T16:13:20.536Z,11.68
2022-10-20T16:28:11.936Z,13.94
2022-10-20T16:43:03.701Z,15.87
2022-10-20T16:57:55.591Z,16.51
2022-10-20T17:27:41.206Z,19.16
2022-10-20T17:42:36.204Z,17.93
2022-10-20T17:57:26.546Z,21.39
2022-10-20T18:12:18.456Z,19.47
2022-10-20T18:27:11.415Z,17.38
2022-10-20T18:42:03.749Z,18.03
2022-10-20T18:57:00.528Z,16.10
2022-10-20T19:26:46.702Z,14.96
2022-10-20T19:41:36.292Z,15.68
2022-10-20T20:11:46.181Z,15.28
2022-10-20T20:26:38.357Z,15.80
2022-10-20T20:41:30.409Z,15.66
2022-10-20T20:56:24.559Z,16.79
2022-10-20T21:11:15.132Z,17.34
2022-10-20T21:26:06.611Z,16.92
2022-10-20T21:41:08.213Z,17.23
2022-10-20T21:56:04.187Z,16.43
2022-10-20T22:10:55.428Z,16.81
2022-10-20T22:25:47.925Z,17.02
2022-10-20T22:40:40.127Z,16.33
2022-10-20T22:55:31.888Z,16.46
2022-10-20T23:10:24.076Z,17.28
2022-10-20T23:25:17.124Z,16.66
2022-10-20T23:40:10.155Z,16.23
2022-10-20T23:55:02.876Z,16.42
